createdAt,value
2023-02-24T00:01:51.871Z,4.81
2023-02-24T00:04:21.186Z,4.81
2023-02-24T00:06:49.762Z,4.80
2023-02-24T00:09:19.868Z,4.79
2023-02-24T00:11:50.503Z,4.79
2023-02-24T00:14:19.184Z,4.80
2023-02-24T00:16:48.406Z,4.77
2023-02-24T00:19:17.721Z,4.79
2023-02-24T00:21:46.548Z,4.80
2023-02-24T00:24:14.913Z,4.77
2023-02-24T00:26:43.532Z,4.78
2023-02-24T00:29:13.856Z,4.78
2023-02-24T00:31:43.299Z,4.78
2023-02-24T00:34:13.767Z,4.76
2023-02-24T00:36:42.182Z,4.75
2023-02-24T00:39:12.523Z,4.76
2023-02-24T00:41:42.380Z,4.73
2023-02-24T00:44:13.999Z,4.74
2023-02-24T00:46:43.292Z,4.75
2023-02-24T00:49:17.327Z,4.76
2023-02-24T00:51:47.668Z,4.76
2023-02-24T00:54:16.521Z,4.76
2023-02-24T00:56:45.926Z,4.76
2023-02-24T00:59:17.238Z,4.77
2023-02-24T01:01:46.276Z,4.79
2023-02-24T01:04:15.186Z,4.80
2023-02-24T01:06:47.137Z,4.81
2023-02-24T01:09:16.479Z,4.83
2023-02-24T01:12:17.586Z,4.84
2023-02-24T01:14:48.328Z,4.86
2023-02-24T01:17:17.018Z,4.86
2023-02-24T01:19:45.851Z,4.87
2023-02-24T01:22:16.605Z,4.88
2023-02-24T01:24:45.900Z,4.88
2023-02-24T01:27:17.573Z,4.89
2023-02-24T01:29:47.638Z,4.91
2023-02-24T01:32:19.171Z,4.92
2023-02-24T01:34:48.137Z,4.94
2023-02-24T01:37:17.200Z,4.96
2023-02-24T01:39:46.488Z,4.96
2023-02-24T01:42:19.379Z,4.98
2023-02-24T01:45:12.822Z,5.01
2023-02-24T01:47:42.345Z,5.01
2023-02-24T01:50:15.018Z,5.02
2023-02-24T01:52:45.398Z,5.04
2023-02-24T01:55:16.777Z,5.04
2023-02-24T01:57:46.313Z,5.07
2023-02-24T02:00:32.758Z,5.07
2023-02-24T02:03:04.307Z,5.06
2023-02-24T02:05:32.593Z,5.02
2023-02-24T02:08:01.246Z,4.98
2023-02-24T02:10:29.502Z,4.90
2023-02-24T02:12:57.679Z,4.83
2023-02-24T02:15:30.143Z,4.74
2023-02-24T02:18:01.433Z,4.66
2023-02-24T02:20:53.923Z,4.65
2023-02-24T02:23:29.849Z,4.59
2023-02-24T02:26:06.440Z,4.56
2023-02-24T02:28:57.098Z,4.52
2023-02-24T02:31:40.431Z,4.46
2023-02-24T02:34:23.547Z,4.46
2023-02-24T02:36:57.411Z,4.47
2023-02-24T02:39:33.006Z,4.45
2023-02-24T02:42:06.954Z,4.47
2023-02-24T02:44:39.836Z,4.48
2023-02-24T02:47:13.352Z,4.49
2023-02-24T02:49:44.165Z,4.50
2023-02-24T02:52:18.036Z,4.51
2023-02-24T02:54:49.834Z,4.52
2023-02-24T02:57:21.718Z,4.50
2023-02-24T02:59:54.276Z,4.48
2023-02-24T03:02:28.634Z,4.45
2023-02-24T03:05:00.008Z,4.46
2023-02-24T03:07:32.056Z,4.48
2023-02-24T03:10:02.752Z,4.49
2023-02-24T03:12:33.057Z,4.51
2023-02-24T03:15:04.837Z,4.57
2023-02-24T03:17:35.045Z,4.58
2023-02-24T03:20:16.383Z,4.64
2023-02-24T03:22:49.945Z,4.70
2023-02-24T03:25:24.361Z,4.75
2023-02-24T03:27:57.150Z,4.80
2023-02-24T03:30:28.672Z,4.83
2023-02-24T03:32:59.414Z,4.87
2023-02-24T03:35:32.349Z,4.91
2023-02-24T03:38:04.099Z,4.94
2023-02-24T03:40:35.579Z,4.97
2023-02-24T03:43:06.814Z,4.98
2023-02-24T03:45:38.133Z,5.01
2023-02-24T03:48:07.297Z,5.03
2023-02-24T03:50:35.591Z,5.03
2023-02-24T03:53:18.629Z,5.07
2023-02-24T03:55:58.877Z,5.08
2023-02-24T03:58:32.629Z,5.08
2023-02-24T04:01:06.426Z,5.10
2023-02-24T04:03:40.761Z,5.12
2023-02-24T04:06:41.956Z,5.14
2023-02-24T04:09:16.533Z,5.16
2023-02-24T04:12:05.650Z,5.18
2023-02-24T04:14:48.672Z,5.23
2023-02-24T04:17:21.171Z,5.27
2023-02-24T04:19:52.835Z,5.28
2023-02-24T04:22:24.696Z,5.29
2023-02-24T04:24:56.277Z,5.26
2023-02-24T04:27:25.366Z,5.28
2023-02-24T04:30:00.291Z,5.26
2023-02-24T04:32:30.620Z,5.28
2023-02-24T04:35:02.932Z,5.30
2023-02-24T04:37:34.057Z,5.33
2023-02-24T04:40:10.724Z,5.35
2023-02-24T04:42:46.681Z,5.36
2023-02-24T04:45:16.564Z,5.39
2023-02-24T04:47:46.338Z,5.39
2023-02-24T04:50:23.248Z,5.44
2023-02-24T04:52:52.458Z,5.46
2023-02-24T04:55:22.788Z,5.47
2023-02-24T04:57:50.858Z,5.50
2023-02-24T05:00:22.664Z,5.52
2023-02-24T05:02:51.289Z,5.53
2023-02-24T05:05:25.565Z,5.54
2023-02-24T05:07:54.752Z,5.56
2023-02-24T05:10:28.221Z,5.59
2023-02-24T05:12:58.394Z,5.63
2023-02-24T05:15:31.342Z,5.65
2023-02-24T05:18:01.305Z,5.70
2023-02-24T05:20:47.518Z,5.72
2023-02-24T05:23:17.223Z,5.72
2023-02-24T05:25:47.151Z,5.74
2023-02-24T05:28:15.649Z,5.76
2023-02-24T05:30:43.996Z,5.79
2023-02-24T05:33:13.776Z,5.80
2023-02-24T05:35:41.913Z,5.80
2023-02-24T05:38:10.896Z,5.77
2023-02-24T05:40:46.205Z,5.71
2023-02-24T05:43:18.862Z,5.58
2023-02-24T05:45:47.629Z,5.60
2023-02-24T05:48:16.158Z,5.53
2023-02-24T05:50:46.980Z,5.45
2023-02-24T05:53:15.314Z,5.38
2023-02-24T05:55:43.998Z,5.32
2023-02-24T05:58:12.303Z,5.31
2023-02-24T06:00:46.269Z,5.29
2023-02-24T06:03:17.713Z,5.26
2023-02-24T06:05:53.854Z,5.23
2023-02-24T06:08:24.475Z,5.23
2023-02-24T06:10:54.028Z,5.19
2023-02-24T06:13:22.256Z,5.23
2023-02-24T06:15:57.401Z,5.23
2023-02-24T06:18:25.698Z,5.25
2023-02-24T06:20:54.189Z,5.24
2023-02-24T06:23:22.526Z,5.28
2023-02-24T06:25:51.129Z,5.30
2023-02-24T06:28:20.138Z,5.31
2023-02-24T06:30:48.525Z,5.34
2023-02-24T06:33:18.659Z,5.38
2023-02-24T06:35:47.470Z,5.39
2023-02-24T06:38:16.079Z,5.34
2023-02-24T06:40:44.438Z,5.42
2023-02-24T06:43:12.605Z,5.44
2023-02-24T06:45:41.131Z,5.47
2023-02-24T06:48:09.535Z,5.50
2023-02-24T06:50:42.134Z,5.49
2023-02-24T06:53:17.055Z,5.56
2023-02-24T06:55:46.616Z,5.60
2023-02-24T06:58:17.492Z,5.62
2023-02-24T07:00:57.051Z,5.65
2023-02-24T07:03:39.243Z,5.69
2023-02-24T07:06:20.553Z,5.70
2023-02-24T07:08:49.273Z,5.77
2023-02-24T07:11:19.393Z,5.84
2023-02-24T07:13:48.733Z,5.86
2023-02-24T07:16:17.506Z,5.89
2023-02-24T07:18:48.459Z,5.91
2023-02-24T07:21:23.599Z,5.91
2023-02-24T07:23:58.856Z,5.89
2023-02-24T07:26:30.743Z,5.85
2023-02-24T07:28:59.030Z,5.79
2023-02-24T07:31:27.178Z,5.79
2023-02-24T07:33:56.929Z,5.80
2023-02-24T07:36:30.352Z,5.80
2023-02-24T07:38:59.669Z,5.83
2023-02-24T07:41:29.936Z,5.88
2023-02-24T07:44:03.351Z,5.87
2023-02-24T07:46:35.047Z,5.93
2023-02-24T07:49:04.291Z,5.89
2023-02-24T07:51:33.948Z,5.89
2023-02-24T07:54:03.589Z,5.84
2023-02-24T07:56:33.056Z,5.82
2023-02-24T07:59:02.190Z,5.81
2023-02-24T08:01:32.460Z,5.76
2023-02-24T08:04:01.600Z,5.72
2023-02-24T08:06:38.069Z,5.67
2023-02-24T08:09:16.870Z,5.68
2023-02-24T08:11:46.181Z,5.62
2023-02-24T08:14:15.278Z,5.64
2023-02-24T08:16:43.982Z,5.61
2023-02-24T08:19:13.744Z,5.57
2023-02-24T08:21:47.776Z,5.57
2023-02-24T08:24:19.858Z,5.52
2023-02-24T08:27:03.940Z,5.57
2023-02-24T08:29:40.228Z,5.58
2023-02-24T08:32:09.747Z,5.58
2023-02-24T08:34:38.183Z,5.57
2023-02-24T08:37:07.927Z,5.58
2023-02-24T08:39:36.611Z,5.56
2023-02-24T08:42:04.966Z,5.59
2023-02-24T08:44:35.367Z,5.60
2023-02-24T08:47:05.560Z,5.63
2023-02-24T08:49:33.946Z,5.65
2023-02-24T08:52:02.933Z,5.64
2023-02-24T08:54:32.612Z,5.69
2023-02-24T08:57:08.384Z,5.74
2023-02-24T08:59:48.631Z,5.81
2023-02-24T09:02:24.480Z,5.87
2023-02-24T09:04:53.845Z,5.88
2023-02-24T09:07:23.136Z,5.93
2023-02-24T09:09:56.634Z,6.00
2023-02-24T09:12:26.707Z,6.05
2023-02-24T09:14:57.288Z,6.13
2023-02-24T09:20:49.231Z,6.25
2023-02-24T09:23:21.143Z,6.35
2023-02-24T09:25:55.016Z,6.39
2023-02-24T09:28:25.274Z,6.47
2023-02-24T09:30:55.200Z,6.57
2023-02-24T09:33:25.808Z,6.71
2023-02-24T09:36:14.882Z,6.84
2023-02-24T09:39:03.298Z,7.03
2023-02-24T09:41:55.012Z,7.24
2023-02-24T09:44:28.690Z,7.67
2023-02-24T09:47:01.063Z,7.92
2023-02-24T09:49:41.009Z,8.19
2023-02-24T09:52:19.042Z,8.20
2023-02-24T09:55:07.261Z,8.17
2023-02-24T09:57:55.275Z,8.15
2023-02-24T10:00:33.764Z,8.11
2023-02-24T10:03:20.221Z,8.09
2023-02-24T10:05:59.693Z,8.09
2023-02-24T10:08:35.106Z,8.16
2023-02-24T10:11:08.446Z,8.13
2023-02-24T10:13:39.270Z,8.11
2023-02-24T10:16:12.490Z,8.11
2023-02-24T10:18:42.422Z,8.11
2023-02-24T10:21:20.802Z,8.05
2023-02-24T10:23:59.694Z,8.07
2023-02-24T10:26:51.306Z,8.01
2023-02-24T10:29:34.970Z,8.01
2023-02-24T10:32:09.339Z,8.07
2023-02-24T10:34:38.075Z,8.13
2023-02-24T10:37:26.212Z,8.12
2023-02-24T10:39:59.537Z,8.26
2023-02-24T10:42:31.858Z,8.37
2023-02-24T10:45:17.359Z,8.63
2023-02-24T10:47:46.489Z,8.70
2023-02-24T10:50:22.623Z,8.79
2023-02-24T10:53:11.171Z,8.83
2023-02-24T10:56:02.294Z,9.07
2023-02-24T10:58:44.928Z,9.19
2023-02-24T11:01:22.217Z,9.14
2023-02-24T11:04:02.304Z,9.05
2023-02-24T11:06:52.763Z,9.10
2023-02-24T11:09:32.380Z,9.20
2023-02-24T11:12:23.311Z,9.24
2023-02-24T11:15:10.613Z,9.20
2023-02-24T11:17:46.389Z,9.14
2023-02-24T11:20:42.525Z,9.05
2023-02-24T11:23:17.233Z,9.04
2023-02-24T11:25:48.328Z,9.06
2023-02-24T11:28:28.813Z,9.20
2023-02-24T11:31:01.179Z,9.24
2023-02-24T11:33:35.123Z,9.19
2023-02-24T11:36:06.778Z,9.24
2023-02-24T11:38:40.219Z,9.26
2023-02-24T11:41:13.864Z,9.38
2023-02-24T11:43:44.659Z,9.45
2023-02-24T11:46:16.095Z,9.58
2023-02-24T11:48:47.385Z,9.52
2023-02-24T11:51:18.300Z,9.46
2023-02-24T11:53:49.077Z,9.48
2023-02-24T11:56:20.701Z,9.51
2023-02-24T11:58:53.890Z,9.39
2023-02-24T12:01:26.670Z,9.49
2023-02-24T12:03:58.090Z,9.56
2023-02-24T12:06:33.224Z,9.73
2023-02-24T12:09:07.878Z,9.90
2023-02-24T12:11:40.795Z,10.08
2023-02-24T12:14:21.297Z,9.95
2023-02-24T12:16:53.414Z,9.82
2023-02-24T12:19:25.644Z,9.94
2023-02-24T12:21:58.064Z,10.06
2023-02-24T12:24:26.255Z,10.32
2023-02-24T12:27:01.405Z,10.67
2023-02-24T12:29:42.695Z,11.09
2023-02-24T12:32:16.052Z,11.00
2023-02-24T12:34:49.010Z,10.98
2023-02-24T12:37:23.990Z,10.99
2023-02-24T12:39:59.595Z,10.99
2023-02-24T12:42:31.082Z,10.92
2023-02-24T12:45:05.060Z,10.78
2023-02-24T12:47:40.478Z,10.40
2023-02-24T12:50:16.777Z,10.28
2023-02-24T12:52:52.926Z,10.40
2023-02-24T12:55:23.772Z,10.31
2023-02-24T12:57:56.846Z,10.25
2023-02-24T13:00:31.866Z,10.26
2023-02-24T13:03:06.530Z,10.35
2023-02-24T13:05:38.808Z,10.26
2023-02-24T13:08:12.456Z,10.23
2023-02-24T13:10:45.955Z,10.07
2023-02-24T13:13:16.872Z,10.08
2023-02-24T13:15:53.881Z,10.12
2023-02-24T13:18:26.191Z,10.16
2023-02-24T13:21:04.045Z,10.21
2023-02-24T13:23:32.922Z,10.30
2023-02-24T13:26:01.216Z,10.35
2023-02-24T13:28:31.279Z,10.52
2023-02-24T13:31:02.346Z,10.59
2023-02-24T13:33:33.382Z,10.57
2023-02-24T13:36:09.891Z,10.59
2023-02-24T13:38:38.965Z,10.55
2023-02-24T13:41:08.470Z,10.59
2023-02-24T13:43:36.650Z,10.64
2023-02-24T13:46:18.720Z,10.69
2023-02-24T13:48:51.289Z,10.81
2023-02-24T13:51:35.485Z,10.87
2023-02-24T13:54:12.292Z,10.80
2023-02-24T13:56:43.803Z,10.91
2023-02-24T13:59:30.546Z,11.02
2023-02-24T14:02:01.273Z,10.92
2023-02-24T14:04:31.657Z,10.82
2023-02-24T14:07:01.977Z,10.94
2023-02-24T14:09:32.274Z,10.99
2023-02-24T14:12:01.729Z,11.16
2023-02-24T14:14:30.680Z,11.17
2023-02-24T14:17:00.391Z,11.15
2023-02-24T14:19:29.018Z,11.04
2023-02-24T14:21:58.388Z,11.00
2023-02-24T14:24:28.169Z,10.87
2023-02-24T14:26:58.108Z,10.77
2023-02-24T14:29:29.829Z,10.70
2023-02-24T14:31:59.483Z,10.61
2023-02-24T14:34:33.288Z,10.57
2023-02-24T14:37:03.700Z,10.48
2023-02-24T14:39:32.642Z,10.50
2023-02-24T14:42:15.948Z,10.50
2023-02-24T14:44:45.758Z,10.39
2023-02-24T14:47:15.783Z,10.44
2023-02-24T14:49:53.131Z,10.48
2023-02-24T14:52:26.678Z,10.35
2023-02-24T14:54:57.016Z,10.47
2023-02-24T14:57:26.699Z,10.46
2023-02-24T14:59:57.257Z,10.50
2023-02-24T15:02:28.888Z,10.55
2023-02-24T15:04:58.876Z,10.48
2023-02-24T15:07:27.867Z,10.47
2023-02-24T15:09:56.354Z,10.45
2023-02-24T15:12:28.974Z,10.43
2023-02-24T15:14:59.084Z,10.27
2023-02-24T15:17:27.689Z,10.25
2023-02-24T15:19:56.091Z,10.12
2023-02-24T15:22:28.020Z,10.08
2023-02-24T15:24:57.683Z,9.97
2023-02-24T15:27:33.159Z,9.95
2023-02-24T15:30:07.075Z,9.91
2023-02-24T15:32:36.075Z,9.79
2023-02-24T15:35:05.675Z,9.76
2023-02-24T15:37:42.703Z,9.84
2023-02-24T15:40:31.922Z,9.77
2023-02-24T15:43:02.334Z,9.80
2023-02-24T15:45:35.108Z,9.77
2023-02-24T15:48:20.629Z,9.79
2023-02-24T15:50:50.170Z,9.81
2023-02-24T15:53:23.479Z,9.74
2023-02-24T15:55:52.584Z,9.68
2023-02-24T15:58:23.293Z,9.63
2023-02-24T16:00:52.564Z,9.73
2023-02-24T16:03:21.827Z,9.71
2023-02-24T16:05:54.006Z,9.72
2023-02-24T16:08:24.334Z,9.77
2023-02-24T16:10:54.052Z,9.64
2023-02-24T16:13:24.045Z,9.66
2023-02-24T16:15:53.694Z,9.69
2023-02-24T16:18:27.991Z,9.69
2023-02-24T16:21:00.260Z,9.68
2023-02-24T16:23:39.651Z,9.65
2023-02-24T16:26:16.298Z,9.71
2023-02-24T16:28:46.634Z,9.72
2023-02-24T16:31:15.882Z,9.68
2023-02-24T16:33:54.117Z,9.67
2023-02-24T16:36:25.935Z,9.68
2023-02-24T16:39:02.495Z,9.64
2023-02-24T16:41:32.106Z,9.58
2023-02-24T16:44:04.002Z,9.58
2023-02-24T16:46:36.376Z,9.58
2023-02-24T16:49:10.357Z,9.59
2023-02-24T16:51:43.029Z,9.57
2023-02-24T16:54:29.687Z,9.57
2023-02-24T16:57:00.957Z,9.55
2023-02-24T16:59:29.751Z,9.55
2023-02-24T17:01:59.713Z,9.40
2023-02-24T17:04:30.208Z,9.40
2023-02-24T17:07:02.721Z,9.31
2023-02-24T17:09:39.340Z,9.26
2023-02-24T17:12:08.924Z,9.10
2023-02-24T17:14:46.614Z,9.07
2023-02-24T17:17:15.845Z,9.09
2023-02-24T17:19:44.882Z,9.02
2023-02-24T17:22:13.806Z,8.95
2023-02-24T17:24:44.224Z,8.96
2023-02-24T17:27:13.681Z,8.96
2023-02-24T17:29:41.923Z,8.82
2023-02-24T17:32:10.661Z,8.85
2023-02-24T17:34:39.081Z,8.83
2023-02-24T17:37:07.136Z,8.83
2023-02-24T17:39:35.354Z,8.73
2023-02-24T17:42:05.514Z,8.68
2023-02-24T17:44:33.839Z,8.63
2023-02-24T17:47:03.085Z,8.60
2023-02-24T17:49:31.158Z,8.44
2023-02-24T17:51:59.752Z,8.51
2023-02-24T17:54:28.385Z,8.47
2023-02-24T17:56:57.963Z,8.41
2023-02-24T17:59:28.209Z,8.39
2023-02-24T18:01:57.082Z,8.37
2023-02-24T18:04:25.118Z,8.38
2023-02-24T18:06:53.422Z,8.34
2023-02-24T18:09:24.792Z,8.31
2023-02-24T18:11:53.014Z,8.25
2023-02-24T18:14:21.770Z,8.26
2023-02-24T18:16:52.441Z,8.26
2023-02-24T18:19:21.720Z,8.25
2023-02-24T18:21:50.049Z,8.26
2023-02-24T18:24:18.283Z,8.20
2023-02-24T18:26:46.439Z,8.19
2023-02-24T18:29:15.645Z,8.21
2023-02-24T18:31:43.961Z,8.21
2023-02-24T18:34:13.704Z,8.19
2023-02-24T18:36:41.992Z,8.17
2023-02-24T18:39:10.281Z,8.22
2023-02-24T18:41:38.640Z,8.22
2023-02-24T18:44:07.237Z,8.16
2023-02-24T18:46:35.484Z,8.16
2023-02-24T18:49:05.335Z,8.04
2023-02-24T18:51:35.033Z,8.10
2023-02-24T18:54:03.567Z,8.00
2023-02-24T18:56:32.526Z,7.98
2023-02-24T18:59:01.238Z,7.91
2023-02-24T19:01:30.611Z,7.83
2023-02-24T19:03:59.307Z,7.74
2023-02-24T19:06:29.069Z,7.66
2023-02-24T19:09:00.099Z,7.56
2023-02-24T19:11:32.900Z,7.49
2023-02-24T19:14:02.083Z,7.41
2023-02-24T19:16:30.693Z,7.33
2023-02-24T19:19:00.168Z,7.27
2023-02-24T19:21:29.840Z,7.22
2023-02-24T19:24:00.319Z,7.17
2023-02-24T19:26:29.104Z,7.13
2023-02-24T19:28:59.567Z,7.06
2023-02-24T19:31:29.363Z,7.05
2023-02-24T19:34:00.414Z,7.04
2023-02-24T19:36:28.896Z,6.95
2023-02-24T19:38:57.038Z,6.91
2023-02-24T19:41:26.911Z,6.91
2023-02-24T19:43:56.298Z,6.88
2023-02-24T19:46:25.442Z,6.84
2023-02-24T19:48:54.285Z,6.78
2023-02-24T19:51:23.726Z,6.69
2023-02-24T19:53:53.387Z,6.57
2023-02-24T19:56:23.643Z,6.47
2023-02-24T19:58:55.578Z,6.28
2023-02-24T20:01:24.546Z,6.27
2023-02-24T20:03:55.055Z,6.16
2023-02-24T20:06:25.143Z,6.08
2023-02-24T20:08:54.177Z,6.02
2023-02-24T20:11:22.386Z,5.93
2023-02-24T20:13:52.355Z,5.81
2023-02-24T20:16:25.262Z,5.73
2023-02-24T20:18:55.229Z,5.58
2023-02-24T20:21:23.633Z,5.56
2023-02-24T20:23:52.221Z,5.49
2023-02-24T20:26:21.791Z,5.46
2023-02-24T20:28:50.643Z,5.44
2023-02-24T20:31:19.628Z,5.35
2023-02-24T20:33:50.271Z,5.28
2023-02-24T20:36:19.210Z,5.15
2023-02-24T20:38:47.377Z,5.07
2023-02-24T20:41:16.015Z,4.98
2023-02-24T20:43:44.706Z,4.95
2023-02-24T20:46:13.361Z,4.80
2023-02-24T20:48:45.440Z,4.75
2023-02-24T20:51:21.909Z,4.64
2023-02-24T20:53:58.486Z,4.64
2023-02-24T20:56:37.913Z,4.59
2023-02-24T20:59:12.350Z,4.48
2023-02-24T21:01:45.829Z,4.44
2023-02-24T21:04:18.940Z,4.41
2023-02-24T21:06:55.489Z,4.38
2023-02-24T21:09:29.837Z,4.39
2023-02-24T21:11:59.447Z,4.40
2023-02-24T21:14:29.772Z,4.35
2023-02-24T21:17:01.578Z,4.33
2023-02-24T21:19:31.958Z,4.30
2023-02-24T21:22:03.901Z,4.25
2023-02-24T21:24:36.779Z,4.16
2023-02-24T21:27:06.572Z,4.00
2023-02-24T21:29:35.137Z,3.84
2023-02-24T21:32:04.008Z,3.70
2023-02-24T21:34:32.993Z,3.51
2023-02-24T21:37:04.922Z,3.35
2023-02-24T21:39:35.595Z,3.33
2023-02-24T21:45:50.778Z,3.43
2023-02-24T21:48:24.859Z,3.41
2023-02-24T21:51:05.880Z,3.39
2023-02-24T21:53:39.412Z,3.26
2023-02-24T21:56:19.091Z,3.28
2023-02-24T21:58:49.019Z,3.31
2023-02-24T22:01:18.720Z,3.27
2023-02-24T22:03:47.111Z,3.18
2023-02-24T22:06:16.964Z,3.05
2023-02-24T22:08:48.452Z,2.97
2023-02-24T22:11:20.705Z,3.00
2023-02-24T22:13:50.792Z,3.08
2023-02-24T22:16:21.188Z,3.08
2023-02-24T22:18:53.707Z,3.06
2023-02-24T22:21:24.514Z,3.06
2023-02-24T22:23:55.546Z,3.04
2023-02-24T22:26:24.839Z,3.02
2023-02-24T22:28:57.181Z,3.03
2023-02-24T22:31:29.317Z,3.00
2023-02-24T22:33:58.779Z,2.86
2023-02-24T22:36:28.708Z,2.72
2023-02-24T22:39:01.439Z,2.59
2023-02-24T22:41:31.290Z,2.41
2023-02-24T22:44:00.770Z,2.32
2023-02-24T22:46:32.175Z,2.18
2023-02-24T22:49:00.692Z,2.24
2023-02-24T22:51:29.414Z,2.38
2023-02-24T22:54:00.019Z,2.44
2023-02-24T22:56:30.864Z,2.53
2023-02-24T22:59:00.690Z,2.57
2023-02-24T23:01:29.937Z,2.55
2023-02-24T23:04:00.859Z,2.51
2023-02-24T23:06:30.179Z,2.51
2023-02-24T23:09:00.524Z,2.52
2023-02-24T23:11:33.410Z,2.45
2023-02-24T23:14:05.543Z,2.36
2023-02-24T23:16:38.364Z,2.29
2023-02-24T23:19:11.326Z,2.30
2023-02-24T23:21:41.558Z,2.35
2023-02-24T23:24:12.463Z,2.37
2023-02-24T23:26:42.063Z,2.41
2023-02-24T23:29:10.655Z,2.40
2023-02-24T23:31:39.288Z,2.42
2023-02-24T23:34:08.129Z,2.39
2023-02-24T23:36:36.529Z,2.33
2023-02-24T23:39:05.125Z,2.36
2023-02-24T23:41:36.281Z,2.36
2023-02-24T23:44:06.047Z,2.38
2023-02-24T23:46:34.856Z,2.40
2023-02-24T23:49:03.434Z,2.40
2023-02-24T23:51:47.151Z,2.38
2023-02-24T23:54:16.525Z,2.43
2023-02-24T23:56:46.861Z,2.44
2023-02-24T23:59:15.232Z,2.46
